createdAt,value
2019-03-12T00:00:57.977Z,24.37
2019-03-12T00:03:27.502Z,20.60
2019-03-12T00:05:56.998Z,13.93
2019-03-12T00:08:26.485Z,14.63
2019-03-12T00:10:56.013Z,25.30
2019-03-12T00:13:25.897Z,17.17
2019-03-12T00:15:55.695Z,14.47
2019-03-12T00:18:28.249Z,28.37
2019-03-12T00:20:56.447Z,14.30
2019-03-12T00:23:25.960Z,16.93
2019-03-12T00:25:55.485Z,21.63
2019-03-12T00:28:24.985Z,18.10
2019-03-12T00:30:54.493Z,15.47
2019-03-12T00:33:24.021Z,16.67
2019-03-12T00:35:53.543Z,13.67
2019-03-12T00:38:23.116Z,30.73
2019-03-12T00:40:52.618Z,15.73
2019-03-12T00:43:22.149Z,16.50
2019-03-12T00:45:51.701Z,23.13
2019-03-12T00:48:21.201Z,26.13
2019-03-12T00:50:50.716Z,25.93
2019-03-12T00:53:20.232Z,15.70
2019-03-12T00:55:49.741Z,14.10
2019-03-12T00:58:19.605Z,12.50
2019-03-12T01:00:49.167Z,16.30
2019-03-12T01:03:18.689Z,21.87
2019-03-12T01:05:48.273Z,12.70
2019-03-12T01:08:17.811Z,11.57
2019-03-12T01:10:47.325Z,14.17
2019-03-12T01:13:17.813Z,19.20
2019-03-12T01:15:47.531Z,16.50
2019-03-12T01:18:17.021Z,14.40
2019-03-12T01:20:46.569Z,20.73
2019-03-12T01:23:16.319Z,19.60
2019-03-12T01:25:45.824Z,13.50
2019-03-12T01:28:15.315Z,27.87
2019-03-12T01:30:44.875Z,15.33
2019-03-12T01:33:14.376Z,27.83
2019-03-12T01:35:43.928Z,23.20
2019-03-12T01:38:13.460Z,16.10
2019-03-12T01:40:42.994Z,22.27
2019-03-12T01:43:12.530Z,30.37
2019-03-12T01:45:42.032Z,23.70
2019-03-12T01:48:11.533Z,22.53
2019-03-12T01:50:41.043Z,16.70
2019-03-12T01:53:10.558Z,20.57
2019-03-12T01:55:40.085Z,26.53
2019-03-12T01:58:09.591Z,18.27
2019-03-12T02:00:39.347Z,25.90
2019-03-12T02:03:09.012Z,21.70
2019-03-12T02:05:38.614Z,19.80
2019-03-12T02:08:13.885Z,17.37
2019-03-12T02:10:43.556Z,28.47
2019-03-12T02:13:14.041Z,25.40
2019-03-12T02:15:48.600Z,29.33
2019-03-12T02:18:21.117Z,21.63
2019-03-12T02:20:50.636Z,19.17
2019-03-12T02:23:28.957Z,24.10
2019-03-12T02:25:58.160Z,20.23
2019-03-12T02:28:27.696Z,32.07
2019-03-12T02:30:57.216Z,24.47
2019-03-12T02:33:26.729Z,27.20
2019-03-12T02:35:56.241Z,27.10
2019-03-12T02:38:25.750Z,20.13
2019-03-12T02:40:55.465Z,22.90
2019-03-12T02:43:24.982Z,35.23
2019-03-12T02:45:54.504Z,18.97
2019-03-12T02:48:24.285Z,22.87
2019-03-12T02:50:54.778Z,19.80
2019-03-12T02:53:24.278Z,31.93
2019-03-12T02:55:54.098Z,20.13
2019-03-12T02:58:23.656Z,26.50
2019-03-12T03:00:53.151Z,26.57
2019-03-12T03:03:22.705Z,28.47
2019-03-12T03:06:00.012Z,34.57
2019-03-12T03:08:31.393Z,25.67
2019-03-12T03:11:00.972Z,21.00
2019-03-12T03:13:30.489Z,43.07
2019-03-12T03:16:01.169Z,20.80
2019-03-12T03:18:30.658Z,23.90
2019-03-12T03:21:00.220Z,25.10
2019-03-12T03:23:29.778Z,29.33
2019-03-12T03:25:59.297Z,22.83
2019-03-12T03:28:30.124Z,25.87
2019-03-12T03:30:59.665Z,24.83
2019-03-12T03:33:29.185Z,23.57
2019-03-12T03:35:58.810Z,20.37
2019-03-12T03:38:28.301Z,23.50
2019-03-12T03:40:58.825Z,15.90
2019-03-12T03:43:28.359Z,23.57
2019-03-12T03:45:58.186Z,20.13
2019-03-12T03:48:27.687Z,28.33
2019-03-12T03:50:57.307Z,28.23
2019-03-12T03:53:27.152Z,28.27
2019-03-12T03:55:56.746Z,25.20
2019-03-12T03:58:26.249Z,14.80
2019-03-12T04:00:55.806Z,25.33
2019-03-12T04:03:25.313Z,19.10
2019-03-12T04:05:54.885Z,29.90
2019-03-12T04:08:24.803Z,26.70
2019-03-12T04:10:54.343Z,24.27
2019-03-12T04:13:23.857Z,18.00
2019-03-12T04:15:53.384Z,17.67
2019-03-12T04:18:22.885Z,15.40
2019-03-12T04:20:52.391Z,17.67
2019-03-12T04:23:21.935Z,14.77
2019-03-12T04:25:51.541Z,21.53
2019-03-12T04:28:22.083Z,21.03
2019-03-12T04:30:51.577Z,19.93
2019-03-12T04:33:51.411Z,20.10
2019-03-12T04:36:20.973Z,19.80
2019-03-12T04:38:50.492Z,29.07
2019-03-12T04:41:19.983Z,18.90
2019-03-12T04:43:49.516Z,16.17
2019-03-12T04:46:20.134Z,19.43
2019-03-12T04:48:49.664Z,21.87
2019-03-12T04:51:19.214Z,13.87
2019-03-12T04:53:48.820Z,27.47
2019-03-12T04:56:18.348Z,19.67
2019-03-12T04:58:47.875Z,27.03
2019-03-12T05:01:17.433Z,17.47
2019-03-12T05:03:46.952Z,19.27
2019-03-12T05:06:19.824Z,19.30
2019-03-12T05:08:48.677Z,19.03
2019-03-12T05:11:18.631Z,22.50
2019-03-12T05:14:23.245Z,28.90
2019-03-12T05:16:54.972Z,27.33
2019-03-12T05:19:26.245Z,28.73
2019-03-12T05:21:55.936Z,19.80
2019-03-12T05:24:25.553Z,20.50
2019-03-12T05:26:55.127Z,23.07
2019-03-12T05:29:25.504Z,27.60
2019-03-12T05:31:55.153Z,21.77
2019-03-12T05:34:24.775Z,21.23
2019-03-12T05:36:54.344Z,19.63
2019-03-12T05:39:23.850Z,21.37
2019-03-12T05:41:53.340Z,20.73
2019-03-12T05:44:22.857Z,16.57
2019-03-12T05:46:52.385Z,21.07
2019-03-12T05:49:21.868Z,20.70
2019-03-12T05:51:51.368Z,18.07
2019-03-12T05:54:21.142Z,20.33
2019-03-12T05:56:50.642Z,15.50
2019-03-12T05:59:20.150Z,16.87
2019-03-12T06:01:49.674Z,24.13
2019-03-12T06:04:19.175Z,24.70
2019-03-12T06:06:48.663Z,19.00
2019-03-12T06:09:29.778Z,23.43
2019-03-12T06:11:49.989Z,22.47
2019-03-12T06:14:19.528Z,23.87
2019-03-12T06:16:49.012Z,16.90
2019-03-12T06:19:18.507Z,23.47
2019-03-12T06:21:48.024Z,25.57
2019-03-12T06:24:17.557Z,17.17
2019-03-12T06:26:47.090Z,18.10
2019-03-12T06:29:16.596Z,23.87
2019-03-12T06:31:47.741Z,20.10
2019-03-12T06:34:18.916Z,26.27
2019-03-12T06:36:50.067Z,21.60
2019-03-12T06:39:29.753Z,26.00
2019-03-12T06:42:03.544Z,21.30
2019-03-12T06:44:37.389Z,21.67
2019-03-12T06:47:23.090Z,22.93
2019-03-12T06:50:09.297Z,27.90
2019-03-12T06:52:49.556Z,27.30
2019-03-12T06:55:32.577Z,22.37
2019-03-12T06:58:17.308Z,14.37
2019-03-12T07:01:03.365Z,20.63
2019-03-12T07:03:46.419Z,20.77
2019-03-12T07:06:20.367Z,20.70
2019-03-12T07:08:51.513Z,13.23
2019-03-12T07:11:34.733Z,9.13
2019-03-12T07:14:12.065Z,17.03
2019-03-12T07:16:43.305Z,16.50
2019-03-12T07:19:20.308Z,25.40
2019-03-12T07:21:51.494Z,14.90
2019-03-12T07:24:25.589Z,16.03
2019-03-12T07:27:12.771Z,19.60
2019-03-12T07:29:43.911Z,21.03
2019-03-12T07:32:23.869Z,24.87
2019-03-12T07:34:57.830Z,16.60
2019-03-12T07:37:29.245Z,26.00
2019-03-12T07:40:00.472Z,12.20
2019-03-12T07:42:37.341Z,19.17
2019-03-12T07:45:16.255Z,26.27
2019-03-12T07:47:59.382Z,15.80
2019-03-12T07:50:42.517Z,21.47
2019-03-12T07:53:19.450Z,22.23
2019-03-12T07:55:50.577Z,20.80
2019-03-12T07:58:35.532Z,23.57
2019-03-12T08:01:09.470Z,16.60
2019-03-12T08:03:46.386Z,21.50
2019-03-12T08:06:32.722Z,23.30
2019-03-12T08:09:18.988Z,22.13
2019-03-12T08:12:04.968Z,22.63
2019-03-12T08:14:45.333Z,22.50
2019-03-12T08:17:25.541Z,16.33
2019-03-12T08:20:02.384Z,21.77
2019-03-12T08:22:36.521Z,16.90
2019-03-12T08:25:12.446Z,26.47
2019-03-12T08:27:55.652Z,18.47
2019-03-12T08:30:26.821Z,11.67
2019-03-12T08:33:03.766Z,13.60
2019-03-12T08:35:40.967Z,19.93
2019-03-12T08:38:24.007Z,15.07
2019-03-12T08:41:10.835Z,16.67
2019-03-12T08:43:42.188Z,11.83
2019-03-12T08:46:18.282Z,18.27
2019-03-12T08:48:54.477Z,31.20
2019-03-12T08:51:25.664Z,14.30
2019-03-12T08:53:57.165Z,13.10
2019-03-12T08:56:32.815Z,17.30
2019-03-12T08:59:09.430Z,18.17
2019-03-12T09:01:56.676Z,18.03
2019-03-12T09:04:30.458Z,19.33
2019-03-12T09:07:01.595Z,10.57
2019-03-12T09:09:32.749Z,12.80
2019-03-12T09:12:06.901Z,17.20
2019-03-12T09:14:38.070Z,32.50
2019-03-12T09:17:11.849Z,15.23
2019-03-12T09:19:59.046Z,10.70
2019-03-12T09:22:30.171Z,15.27
2019-03-12T09:25:01.308Z,18.83
2019-03-12T09:27:32.461Z,17.20
2019-03-12T09:30:09.357Z,12.00
2019-03-12T09:32:40.505Z,13.37
2019-03-12T09:35:27.635Z,19.70
2019-03-12T09:38:01.513Z,17.83
2019-03-12T09:40:32.631Z,19.17
2019-03-12T09:43:12.555Z,17.93
2019-03-12T09:45:46.392Z,9.87
2019-03-12T09:48:20.304Z,18.00
2019-03-12T09:51:00.337Z,10.93
2019-03-12T09:53:31.867Z,7.47
2019-03-12T09:56:03.023Z,14.40
2019-03-12T09:58:37.069Z,8.53
2019-03-12T10:01:08.231Z,12.43
2019-03-12T10:03:48.104Z,14.17
2019-03-12T10:06:21.917Z,10.37
2019-03-12T10:08:56.040Z,8.37
2019-03-12T10:11:29.914Z,14.07
2019-03-12T10:14:15.992Z,15.50
2019-03-12T10:16:56.173Z,8.10
2019-03-12T10:19:43.274Z,15.10
2019-03-12T10:22:19.889Z,21.50
2019-03-12T10:24:59.850Z,8.90
2019-03-12T10:27:31.052Z,13.13
2019-03-12T10:30:02.295Z,14.57
2019-03-12T10:32:51.014Z,16.80
2019-03-12T10:35:28.098Z,13.00
2019-03-12T10:38:07.866Z,9.40
2019-03-12T10:40:50.785Z,15.67
2019-03-12T10:43:21.914Z,14.50
2019-03-12T10:45:55.801Z,9.70
2019-03-12T10:48:25.483Z,12.10
2019-03-12T10:50:54.960Z,10.70
2019-03-12T10:53:24.476Z,14.07
2019-03-12T10:55:53.985Z,9.73
2019-03-12T10:58:23.480Z,18.07
2019-03-12T11:00:52.997Z,11.30
2019-03-12T11:03:22.499Z,18.60
2019-03-12T11:05:52.077Z,5.00
2019-03-12T11:08:21.618Z,12.97
2019-03-12T11:10:51.190Z,11.33
2019-03-12T11:13:20.705Z,12.37
2019-03-12T11:15:50.232Z,15.27
2019-03-12T11:18:19.716Z,8.73
2019-03-12T11:20:49.246Z,22.63
2019-03-12T11:23:18.759Z,6.07
2019-03-12T11:25:48.440Z,12.60
2019-03-12T11:28:17.976Z,12.10
2019-03-12T11:30:47.456Z,10.93
2019-03-12T11:33:17.251Z,9.47
2019-03-12T11:35:46.814Z,9.87
2019-03-12T11:38:16.301Z,11.90
2019-03-12T11:40:45.865Z,10.60
2019-03-12T11:43:15.347Z,6.17
2019-03-12T11:45:44.913Z,8.27
2019-03-12T11:48:14.586Z,10.63
2019-03-12T11:50:44.137Z,9.73
2019-03-12T11:53:13.727Z,10.40
2019-03-12T11:55:43.326Z,12.00
2019-03-12T11:58:12.831Z,9.60
2019-03-12T12:00:46.813Z,9.90
2019-03-12T12:03:16.447Z,7.77
2019-03-12T12:05:46.028Z,8.77
2019-03-12T12:08:15.566Z,6.73
2019-03-12T12:10:45.042Z,5.63
2019-03-12T12:13:16.003Z,16.03
2019-03-12T12:15:45.521Z,13.60
2019-03-12T12:18:15.045Z,14.60
2019-03-12T12:20:44.528Z,10.90
2019-03-12T12:23:14.071Z,7.20
2019-03-12T12:25:43.575Z,8.40
2019-03-12T12:28:13.084Z,7.57
2019-03-12T12:30:42.675Z,8.00
2019-03-12T12:33:12.228Z,12.73
2019-03-12T12:35:42.008Z,10.40
2019-03-12T12:38:11.488Z,5.93
2019-03-12T12:40:40.989Z,5.40
2019-03-12T12:43:10.518Z,8.20
2019-03-12T12:45:43.583Z,9.40
2019-03-12T12:48:13.105Z,4.40
2019-03-12T12:50:42.630Z,8.23
2019-03-12T12:53:12.191Z,4.53
2019-03-12T12:55:41.743Z,5.80
2019-03-12T12:58:11.297Z,6.37
2019-03-12T13:00:40.793Z,8.67
2019-03-12T13:03:10.343Z,6.27
2019-03-12T13:05:39.853Z,4.83
2019-03-12T13:08:09.520Z,4.73
2019-03-12T13:10:39.118Z,6.80
2019-03-12T13:13:08.705Z,9.63
2019-03-12T13:15:38.335Z,6.67
2019-03-12T13:18:07.873Z,9.50
2019-03-12T13:20:37.469Z,11.83
2019-03-12T13:23:07.067Z,8.60
2019-03-12T13:25:36.626Z,11.43
2019-03-12T13:28:06.171Z,5.87
2019-03-12T13:30:35.849Z,15.70
2019-03-12T13:33:05.433Z,9.07
2019-03-12T13:35:35.074Z,8.20
2019-03-12T13:38:04.721Z,6.40
2019-03-12T13:40:34.352Z,12.53
2019-03-12T13:43:04.193Z,11.63
2019-03-12T13:45:34.058Z,9.03
2019-03-12T13:48:04.059Z,8.40
2019-03-12T13:50:33.767Z,14.50
2019-03-12T13:53:03.509Z,13.57
2019-03-12T13:55:33.457Z,9.30
2019-03-12T13:58:03.490Z,9.53
2019-03-12T14:00:33.806Z,5.70
2019-03-12T14:03:03.484Z,9.33
2019-03-12T14:05:33.070Z,9.17
2019-03-12T14:08:02.586Z,9.87
2019-03-12T14:10:32.126Z,10.37
2019-03-12T14:13:01.685Z,6.37
2019-03-12T14:15:32.216Z,6.30
2019-03-12T14:18:02.196Z,10.70
2019-03-12T14:20:40.782Z,9.77
2019-03-12T14:23:30.787Z,4.27
2019-03-12T14:26:00.481Z,7.43
2019-03-12T14:28:29.978Z,6.40
2019-03-12T14:30:59.652Z,6.33
2019-03-12T14:33:29.361Z,5.30
2019-03-12T14:35:58.874Z,3.90
2019-03-12T14:38:28.469Z,10.77
2019-03-12T14:40:57.975Z,4.27
2019-03-12T14:43:27.523Z,5.30
2019-03-12T14:45:57.018Z,4.80
2019-03-12T14:48:41.335Z,9.37
2019-03-12T14:51:23.104Z,6.30
2019-03-12T14:53:55.249Z,4.90
2019-03-12T14:56:29.489Z,5.80
2019-03-12T14:58:59.115Z,9.17
2019-03-12T15:01:29.863Z,7.37
2019-03-12T15:03:59.369Z,7.63
2019-03-12T15:06:29.015Z,8.70
2019-03-12T15:08:58.548Z,6.17
2019-03-12T15:11:28.129Z,10.70
2019-03-12T15:13:58.551Z,7.50
2019-03-12T15:16:28.102Z,6.00
2019-03-12T15:18:57.649Z,7.07
2019-03-12T15:21:27.391Z,6.43
2019-03-12T15:23:57.490Z,7.07
2019-03-12T15:26:27.021Z,7.97
2019-03-12T15:28:56.553Z,8.57
2019-03-12T15:31:26.053Z,14.40
2019-03-12T15:33:55.589Z,6.13
2019-03-12T15:36:25.138Z,6.17
2019-03-12T15:38:54.642Z,10.37
2019-03-12T15:41:24.166Z,5.37
2019-03-12T15:43:53.686Z,10.10
2019-03-12T15:46:23.322Z,6.73
2019-03-12T15:48:52.832Z,13.40
2019-03-12T15:51:22.511Z,4.73
2019-03-12T15:53:51.991Z,8.07
2019-03-12T15:56:21.488Z,11.80
2019-03-12T15:58:51.162Z,7.33
2019-03-12T16:01:21.115Z,6.70
2019-03-12T16:03:50.718Z,4.73
2019-03-12T16:06:20.258Z,6.83
2019-03-12T16:08:49.744Z,8.63
2019-03-12T16:11:19.235Z,4.60
2019-03-12T16:13:48.898Z,6.23
2019-03-12T16:16:18.476Z,17.87
2019-03-12T16:18:47.965Z,5.20
2019-03-12T16:21:17.476Z,7.03
2019-03-12T16:23:46.987Z,10.83
2019-03-12T16:26:18.715Z,5.57
2019-03-12T16:28:48.334Z,7.43
2019-03-12T16:31:17.895Z,3.80
2019-03-12T16:33:47.408Z,10.70
2019-03-12T16:36:16.909Z,6.00
2019-03-12T16:38:46.429Z,9.87
2019-03-12T16:41:15.926Z,7.87
2019-03-12T16:43:45.401Z,7.37
2019-03-12T16:46:15.202Z,4.67
2019-03-12T16:48:44.690Z,5.60
2019-03-12T16:51:14.230Z,9.87
2019-03-12T16:53:43.750Z,5.00
2019-03-12T16:56:13.310Z,6.90
2019-03-12T16:58:42.818Z,6.53
2019-03-12T17:01:12.380Z,4.10
2019-03-12T17:03:41.920Z,11.93
2019-03-12T17:06:11.433Z,4.80
2019-03-12T17:08:40.946Z,7.10
2019-03-12T17:11:10.637Z,9.53
2019-03-12T17:13:40.109Z,6.80
2019-03-12T17:16:09.974Z,6.23
2019-03-12T17:18:39.482Z,9.57
2019-03-12T17:21:08.976Z,14.10
2019-03-12T17:23:38.498Z,5.57
2019-03-12T17:26:08.000Z,6.53
2019-03-12T17:28:37.520Z,10.13
2019-03-12T17:31:07.098Z,7.07
2019-03-12T17:33:36.572Z,3.77
2019-03-12T17:36:06.116Z,7.23
2019-03-12T17:38:46.019Z,9.90
2019-03-12T17:41:06.909Z,4.80
2019-03-12T17:43:36.473Z,12.87
2019-03-12T17:46:06.014Z,6.87
2019-03-12T17:48:35.636Z,9.53
2019-03-12T17:51:06.244Z,7.60
2019-03-12T17:53:35.724Z,5.00
2019-03-12T17:56:05.498Z,4.70
2019-03-12T17:58:35.033Z,8.97
2019-03-12T18:01:04.799Z,7.00
2019-03-12T18:03:35.487Z,5.10
2019-03-12T18:06:05.078Z,8.57
2019-03-12T18:08:34.577Z,4.60
2019-03-12T18:11:04.168Z,8.30
2019-03-12T18:13:33.682Z,16.30
2019-03-12T18:16:03.196Z,6.77
2019-03-12T18:18:32.722Z,9.93
2019-03-12T18:21:02.264Z,11.20
2019-03-12T18:23:31.769Z,5.27
2019-03-12T18:26:02.348Z,10.20
2019-03-12T18:28:31.827Z,10.93
2019-03-12T18:31:01.345Z,7.20
2019-03-12T18:33:30.958Z,4.30
2019-03-12T18:36:01.407Z,9.50
2019-03-12T18:38:30.932Z,8.47
2019-03-12T18:41:00.435Z,6.27
2019-03-12T18:43:29.996Z,6.00
2019-03-12T18:45:59.484Z,3.83
2019-03-12T18:48:28.972Z,12.37
2019-03-12T18:50:58.674Z,5.27
2019-03-12T18:53:28.167Z,6.13
2019-03-12T18:56:00.468Z,6.47
2019-03-12T18:58:29.980Z,8.10
2019-03-12T19:01:01.237Z,7.33
2019-03-12T19:03:30.725Z,8.17
2019-03-12T19:06:00.269Z,4.87
2019-03-12T19:08:29.762Z,8.10
2019-03-12T19:10:59.270Z,5.33
2019-03-12T19:13:28.818Z,10.43
2019-03-12T19:15:58.334Z,11.60
2019-03-12T19:18:27.850Z,6.13
2019-03-12T19:20:57.811Z,3.73
2019-03-12T19:23:27.315Z,9.00
2019-03-12T19:25:57.301Z,4.20
2019-03-12T19:28:26.782Z,8.10
2019-03-12T19:30:57.917Z,5.83
2019-03-12T19:33:30.423Z,7.33
2019-03-12T19:35:59.939Z,8.00
2019-03-12T19:38:29.420Z,7.70
2019-03-12T19:40:59.047Z,6.40
2019-03-12T19:43:28.587Z,7.53
2019-03-12T19:45:58.110Z,7.57
2019-03-12T19:48:27.659Z,7.53
2019-03-12T19:50:57.223Z,5.43
2019-03-12T19:53:26.707Z,4.60
2019-03-12T19:55:59.033Z,10.43
2019-03-12T19:58:28.741Z,4.03
2019-03-12T20:00:59.319Z,8.43
2019-03-12T20:03:28.873Z,6.10
2019-03-12T20:05:58.437Z,6.57
2019-03-12T20:08:27.911Z,5.07
2019-03-12T20:11:21.405Z,5.30
2019-03-12T20:14:13.029Z,5.33
2019-03-12T20:17:08.434Z,4.83
2019-03-12T20:20:06.481Z,6.63
2019-03-12T20:23:10.827Z,8.73
2019-03-12T20:26:04.415Z,6.60
2019-03-12T20:28:56.346Z,7.87
2019-03-12T20:31:49.650Z,6.57
2019-03-12T20:34:55.010Z,5.10
2019-03-12T20:37:57.644Z,7.00
2019-03-12T20:40:53.725Z,8.47
2019-03-12T20:43:50.463Z,5.53
2019-03-12T20:46:45.319Z,11.13
2019-03-12T20:49:26.483Z,9.37
2019-03-12T20:52:32.146Z,6.23
2019-03-12T20:55:13.432Z,3.50
2019-03-12T20:58:11.850Z,3.30
2019-03-12T21:00:50.191Z,3.53
2019-03-12T21:03:24.993Z,6.07
2019-03-12T21:06:19.933Z,3.97
2019-03-12T21:09:25.496Z,4.67
2019-03-12T21:12:06.950Z,4.83
2019-03-12T21:15:04.958Z,4.50
2019-03-12T21:17:59.831Z,5.07
2019-03-12T21:20:50.701Z,4.13
2019-03-12T21:23:25.924Z,4.10
2019-03-12T21:26:25.282Z,4.40
2019-03-12T21:29:09.903Z,4.57
2019-03-12T21:31:39.580Z,7.33
2019-03-12T21:34:09.361Z,7.00
2019-03-12T21:36:38.989Z,6.20
2019-03-12T21:39:09.619Z,6.37
2019-03-12T21:41:39.228Z,7.93
2019-03-12T21:44:08.919Z,7.00
2019-03-12T21:46:38.558Z,8.10
2019-03-12T21:49:08.107Z,9.27
2019-03-12T21:51:37.623Z,9.10
2019-03-12T21:54:07.124Z,8.57
2019-03-12T21:56:37.193Z,9.97
2019-03-12T21:59:06.761Z,8.63
2019-03-12T22:01:37.125Z,10.37
2019-03-12T22:04:07.048Z,9.93
2019-03-12T22:06:36.680Z,9.40
2019-03-12T22:09:06.534Z,9.07
2019-03-12T22:11:36.021Z,10.13
2019-03-12T22:14:05.549Z,9.80
2019-03-12T22:16:35.138Z,15.50
2019-03-12T22:19:04.776Z,9.47
2019-03-12T22:21:50.799Z,10.90
2019-03-12T22:24:21.196Z,11.00
2019-03-12T22:26:50.692Z,12.43
2019-03-12T22:29:20.242Z,9.63
2019-03-12T22:31:49.757Z,9.93
2019-03-12T22:34:19.247Z,8.43
2019-03-12T22:36:48.838Z,8.33
2019-03-12T22:39:18.325Z,8.60
2019-03-12T22:41:47.846Z,7.47
2019-03-12T22:44:17.376Z,8.00
2019-03-12T22:46:46.884Z,8.23
2019-03-12T22:49:16.415Z,13.03
2019-03-12T22:51:45.941Z,9.90
2019-03-12T22:54:15.439Z,13.57
2019-03-12T22:56:44.980Z,8.17
2019-03-12T22:59:14.490Z,9.57
2019-03-12T23:01:44.172Z,8.90
2019-03-12T23:04:13.650Z,8.30
2019-03-12T23:06:43.140Z,10.20
2019-03-12T23:09:12.821Z,6.97
2019-03-12T23:11:42.316Z,7.83
2019-03-12T23:14:11.803Z,8.90
2019-03-12T23:16:41.458Z,11.73
2019-03-12T23:19:10.958Z,8.43
2019-03-12T23:21:40.440Z,15.10
2019-03-12T23:24:09.958Z,13.20
2019-03-12T23:26:39.527Z,10.23
2019-03-12T23:29:09.137Z,7.97
2019-03-12T23:31:39.232Z,10.83
2019-03-12T23:34:08.710Z,12.43
2019-03-12T23:36:38.262Z,11.17
2019-03-12T23:39:08.224Z,9.70
2019-03-12T23:41:37.793Z,8.40
2019-03-12T23:44:07.563Z,14.10
2019-03-12T23:46:37.041Z,11.30
2019-03-12T23:49:06.532Z,17.43
2019-03-12T23:51:36.148Z,15.10
2019-03-12T23:54:05.631Z,15.10
2019-03-12T23:56:35.198Z,13.27
2019-03-12T23:59:04.685Z,16.53
